createdAt,value
2022-10-30T00:01:18.251Z,5.35
2022-10-30T00:05:20.993Z,4.97
2022-10-30T00:09:22.835Z,5.05
2022-10-30T00:13:28.309Z,5.70
2022-10-30T00:17:30.293Z,5.00
2022-10-30T00:21:32.033Z,4.30
2022-10-30T00:25:36.224Z,4.47
2022-10-30T00:29:37.921Z,4.73
2022-10-30T00:33:41.676Z,4.20
2022-10-30T00:37:43.575Z,3.80
2022-10-30T00:41:45.437Z,4.57
2022-10-30T00:45:49.039Z,4.23
2022-10-30T00:49:57.830Z,4.25
2022-10-30T00:54:03.455Z,4.00
2022-10-30T00:58:09.623Z,4.30
2022-10-30T01:02:11.665Z,3.70
2022-10-30T01:06:16.125Z,4.17
2022-10-30T01:10:19.041Z,4.10
2022-10-30T01:14:21.642Z,4.13
2022-10-30T01:18:46.453Z,3.50
2022-10-30T01:22:57.621Z,3.87
2022-10-30T01:27:11.937Z,3.55
2022-10-30T01:31:21.490Z,3.60
2022-10-30T01:35:23.172Z,3.67
2022-10-30T01:39:27.973Z,4.13
2022-10-30T01:43:29.877Z,3.77
2022-10-30T01:48:04.679Z,3.80
2022-10-30T01:52:12.257Z,3.60
2022-10-30T01:56:37.456Z,3.80
2022-10-30T02:04:58.109Z,3.77
2022-10-30T02:09:00.010Z,3.70
2022-10-30T02:13:02.481Z,3.50
2022-10-30T02:17:06.987Z,3.70
2022-10-30T02:21:09.261Z,4.00
2022-10-30T02:25:11.200Z,3.90
2022-10-30T02:29:13.257Z,4.03
2022-10-30T02:33:15.231Z,4.27
2022-10-30T02:37:17.577Z,4.27
2022-10-30T02:41:19.848Z,5.20
2022-10-30T02:45:22.374Z,4.20
2022-10-30T02:49:24.054Z,3.70
2022-10-30T02:53:26.069Z,3.60
2022-10-30T02:58:09.825Z,3.90
2022-10-30T03:02:11.637Z,3.57
2022-10-30T03:06:16.047Z,3.90
2022-10-30T03:10:18.719Z,3.50
2022-10-30T03:14:20.790Z,3.23
2022-10-30T03:18:23.150Z,3.37
2022-10-30T03:22:25.427Z,3.17
2022-10-30T03:26:27.167Z,3.27
2022-10-30T03:30:28.838Z,3.25
2022-10-30T03:34:32.129Z,3.90
2022-10-30T03:38:34.970Z,3.63
2022-10-30T03:42:40.834Z,3.57
2022-10-30T03:46:42.543Z,3.73
2022-10-30T03:50:44.635Z,3.80
2022-10-30T03:54:46.321Z,4.93
2022-10-30T03:58:53.858Z,5.33
2022-10-30T04:02:55.826Z,5.30
2022-10-30T04:06:59.714Z,4.70
2022-10-30T04:11:01.576Z,4.17
2022-10-30T04:15:04.502Z,4.83
2022-10-30T04:19:13.840Z,3.87
2022-10-30T04:23:18.386Z,4.53
2022-10-30T04:27:23.470Z,4.47
2022-10-30T04:31:25.156Z,3.90
2022-10-30T04:35:29.148Z,3.53
2022-10-30T04:39:30.894Z,4.33
2022-10-30T04:43:32.686Z,5.13
2022-10-30T04:47:34.617Z,4.67
2022-10-30T04:51:36.411Z,4.60
2022-10-30T04:55:38.570Z,3.97
2022-10-30T04:59:42.249Z,4.03
2022-10-30T05:03:44.081Z,4.43
2022-10-30T05:07:45.900Z,5.20
2022-10-30T05:11:47.686Z,5.30
2022-10-30T05:15:49.478Z,5.30
2022-10-30T05:20:02.066Z,6.10
2022-10-30T05:24:04.005Z,4.73
2022-10-30T05:28:07.397Z,5.67
2022-10-30T05:32:09.103Z,6.10
2022-10-30T05:36:10.810Z,6.00
2022-10-30T05:40:14.553Z,5.00
2022-10-30T05:44:28.881Z,6.33
2022-10-30T05:48:38.963Z,5.37
2022-10-30T05:52:40.710Z,5.77
2022-10-30T05:56:42.444Z,4.70
2022-10-30T06:00:44.410Z,4.67
2022-10-30T06:04:46.342Z,3.80
2022-10-30T06:13:07.655Z,5.43
2022-10-30T06:17:09.857Z,5.47
2022-10-30T06:21:11.670Z,5.40
2022-10-30T06:25:13.509Z,6.73
2022-10-30T06:29:17.673Z,7.47
2022-10-30T06:33:19.380Z,6.87
2022-10-30T06:37:21.151Z,6.37
2022-10-30T06:41:29.056Z,6.57
2022-10-30T06:45:31.975Z,8.03
2022-10-30T06:49:37.438Z,7.90
2022-10-30T06:53:39.125Z,7.13
2022-10-30T06:57:40.916Z,5.67
2022-10-30T07:01:42.679Z,5.57
2022-10-30T07:05:44.505Z,20.53
2022-10-30T07:09:55.606Z,10.90
2022-10-30T07:13:58.446Z,8.27
2022-10-30T07:18:05.224Z,5.53
2022-10-30T07:22:06.975Z,4.87
2022-10-30T07:26:08.930Z,5.40
2022-10-30T07:30:15.641Z,5.20
2022-10-30T07:34:20.072Z,5.13
2022-10-30T07:38:23.419Z,5.83
2022-10-30T07:42:25.131Z,6.50
2022-10-30T07:46:28.497Z,6.47
2022-10-30T07:50:45.022Z,6.97
2022-10-30T07:54:48.699Z,6.93
2022-10-30T07:58:50.804Z,5.83
2022-10-30T08:02:56.806Z,6.70
2022-10-30T08:06:58.940Z,6.27
2022-10-30T08:11:03.205Z,5.50
2022-10-30T08:15:05.550Z,5.90
2022-10-30T08:19:08.343Z,5.50
2022-10-30T08:23:12.767Z,5.53
2022-10-30T08:27:14.516Z,6.75
2022-10-30T08:31:16.400Z,7.17
2022-10-30T08:35:19.987Z,7.10
2022-10-30T08:39:29.603Z,8.97
2022-10-30T08:43:31.438Z,9.43
2022-10-30T08:47:34.218Z,7.97
2022-10-30T08:51:36.251Z,7.78
2022-10-30T08:55:38.242Z,7.40
2022-10-30T08:59:40.004Z,7.50
2022-10-30T09:03:43.084Z,8.27
2022-10-30T09:07:45.349Z,8.07
2022-10-30T09:11:49.068Z,7.82
2022-10-30T09:15:51.197Z,9.00
2022-10-30T09:19:53.049Z,8.63
2022-10-30T09:23:54.765Z,9.25
2022-10-30T09:27:56.702Z,8.45
2022-10-30T09:31:59.591Z,8.00
2022-10-30T09:36:02.916Z,7.03
2022-10-30T09:40:09.070Z,7.82
2022-10-30T09:44:13.950Z,8.93
2022-10-30T09:48:31.463Z,8.85
2022-10-30T09:52:51.029Z,8.57
2022-10-30T09:57:23.802Z,8.07
2022-10-30T10:01:48.835Z,8.05
2022-10-30T10:06:00.565Z,7.82
2022-10-30T10:10:09.880Z,6.63
2022-10-30T10:14:21.806Z,7.18
2022-10-30T10:18:29.855Z,6.70
2022-10-30T10:22:50.353Z,6.88
2022-10-30T10:27:08.703Z,7.95
2022-10-30T10:31:35.603Z,8.50
2022-10-30T10:36:13.664Z,9.00
2022-10-30T10:40:37.391Z,8.82
2022-10-30T10:45:05.538Z,8.38
2022-10-30T10:49:28.009Z,8.40
2022-10-30T10:53:52.994Z,8.90
2022-10-30T10:57:58.748Z,8.73
2022-10-30T11:02:09.992Z,9.07
2022-10-30T11:06:21.187Z,8.07
2022-10-30T11:10:23.838Z,6.47
2022-10-30T11:14:29.196Z,6.90
2022-10-30T11:18:31.515Z,6.55
2022-10-30T11:22:40.047Z,7.03
2022-10-30T11:26:48.203Z,6.72
2022-10-30T11:30:49.890Z,6.70
2022-10-30T11:35:13.171Z,6.75
2022-10-30T11:39:23.862Z,6.40
2022-10-30T11:43:26.194Z,6.75
2022-10-30T11:47:38.894Z,7.20
2022-10-30T11:51:40.829Z,6.43
2022-10-30T11:55:47.515Z,6.90
2022-10-30T11:59:51.821Z,6.05
2022-10-30T12:03:55.177Z,6.03
2022-10-30T12:08:18.746Z,6.38
2022-10-30T12:12:36.224Z,6.22
2022-10-30T12:16:46.577Z,5.65
2022-10-30T12:20:53.134Z,5.63
2022-10-30T12:24:55.189Z,5.68
2022-10-30T12:29:04.389Z,5.90
2022-10-30T12:33:30.877Z,4.88
2022-10-30T12:37:41.010Z,6.13
2022-10-30T12:41:51.432Z,5.10
2022-10-30T12:45:58.958Z,5.10
2022-10-30T12:54:25.672Z,5.43
2022-10-30T12:58:39.874Z,5.78
2022-10-30T13:03:03.898Z,4.63
2022-10-30T13:07:24.325Z,4.55
2022-10-30T13:11:39.467Z,4.20
2022-10-30T13:15:56.220Z,4.05
2022-10-30T13:19:57.925Z,4.32
2022-10-30T13:24:13.318Z,4.72
2022-10-30T13:28:28.443Z,3.80
2022-10-30T13:32:39.424Z,3.45
2022-10-30T13:36:50.003Z,4.28
2022-10-30T13:41:08.433Z,3.88
2022-10-30T13:45:28.600Z,4.07
2022-10-30T13:50:05.921Z,3.90
2022-10-30T13:54:22.379Z,3.90
2022-10-30T13:58:51.442Z,3.55
2022-10-30T14:03:11.997Z,3.35
2022-10-30T14:07:29.970Z,3.55
2022-10-30T14:11:32.520Z,3.80
2022-10-30T14:15:54.698Z,4.07
2022-10-30T14:20:53.386Z,4.35
2022-10-30T14:24:34.855Z,3.58
2022-10-30T14:29:01.298Z,4.20
2022-10-30T14:33:03.155Z,4.63
2022-10-30T14:37:04.999Z,4.60
2022-10-30T14:41:22.476Z,4.07
2022-10-30T14:45:33.649Z,3.40
2022-10-30T14:49:46.446Z,4.05
2022-10-30T14:54:06.798Z,4.47
2022-10-30T14:58:19.748Z,4.20
2022-10-30T15:02:53.721Z,5.18
2022-10-30T15:07:29.489Z,4.32
2022-10-30T15:11:40.307Z,4.57
2022-10-30T15:15:43.107Z,5.65
2022-10-30T15:19:46.816Z,5.72
2022-10-30T15:23:48.883Z,6.30
2022-10-30T15:27:58.339Z,6.35
2022-10-30T15:32:14.530Z,5.00
2022-10-30T15:36:21.222Z,4.88
2022-10-30T15:40:23.003Z,5.28
2022-10-30T15:44:28.622Z,5.28
2022-10-30T15:48:33.718Z,3.95
2022-10-30T15:52:35.572Z,4.55
2022-10-30T15:57:06.803Z,4.75
2022-10-30T16:01:05.801Z,5.03
2022-10-30T16:05:23.943Z,5.30
2022-10-30T16:09:27.306Z,6.05
2022-10-30T16:13:31.802Z,5.22
2022-10-30T16:17:34.841Z,6.70
2022-10-30T16:21:37.241Z,5.95
2022-10-30T16:25:44.450Z,6.80
2022-10-30T16:29:51.817Z,5.00
2022-10-30T16:33:53.797Z,4.85
2022-10-30T16:37:56.633Z,4.78
2022-10-30T16:42:00.067Z,4.72
2022-10-30T16:46:17.161Z,5.72
2022-10-30T16:50:20.501Z,5.53
2022-10-30T16:54:30.809Z,4.97
2022-10-30T16:58:33.505Z,5.97
2022-10-30T17:02:37.105Z,6.90
2022-10-30T17:06:44.693Z,7.05
2022-10-30T17:11:03.120Z,7.03
2022-10-30T17:15:18.120Z,6.45
2022-10-30T17:19:32.187Z,6.07
2022-10-30T17:23:42.314Z,5.70
2022-10-30T17:27:53.147Z,4.88
2022-10-30T17:32:06.627Z,5.03
2022-10-30T17:36:09.231Z,5.88
2022-10-30T17:40:12.392Z,5.05
2022-10-30T17:49:50.058Z,7.95
2022-10-30T17:53:52.007Z,6.00
2022-10-30T17:57:54.269Z,5.65
2022-10-30T18:01:56.033Z,5.60
2022-10-30T18:06:01.283Z,5.20
2022-10-30T18:15:35.800Z,6.72
2022-10-30T18:19:45.237Z,8.05
2022-10-30T18:23:52.514Z,8.65
2022-10-30T18:32:10.971Z,9.00
2022-10-30T18:36:26.039Z,9.02
2022-10-30T18:40:28.869Z,7.85
2022-10-30T18:44:30.590Z,7.68
2022-10-30T18:48:32.344Z,8.02
2022-10-30T18:52:34.040Z,8.32
2022-10-30T18:56:43.299Z,8.30
2022-10-30T19:01:10.445Z,10.27
2022-10-30T19:05:25.613Z,7.18
2022-10-30T19:09:27.320Z,7.13
2022-10-30T19:13:29.306Z,6.35
2022-10-30T19:17:31.055Z,9.25
2022-10-30T19:21:34.566Z,5.28
2022-10-30T19:25:36.376Z,5.70
2022-10-30T19:29:38.192Z,6.05
2022-10-30T19:33:43.932Z,7.38
2022-10-30T19:37:46.622Z,6.80
2022-10-30T19:41:48.422Z,6.30
2022-10-30T19:45:57.062Z,5.72
2022-10-30T19:49:59.288Z,7.05
2022-10-30T19:54:01.125Z,7.05
2022-10-30T19:58:06.218Z,6.27
2022-10-30T20:02:10.928Z,6.20
2022-10-30T20:06:13.149Z,6.25
2022-10-30T20:10:21.486Z,5.72
2022-10-30T20:14:23.617Z,6.78
2022-10-30T20:18:30.171Z,6.93
2022-10-30T20:22:32.337Z,7.30
2022-10-30T20:26:34.155Z,6.93
2022-10-30T20:30:35.999Z,7.10
2022-10-30T20:34:37.776Z,6.43
2022-10-30T20:38:40.210Z,6.37
2022-10-30T20:46:51.562Z,5.33
2022-10-30T20:50:54.894Z,6.38
2022-10-30T20:54:56.955Z,7.72
2022-10-30T20:58:58.677Z,7.73
2022-10-30T21:03:05.773Z,7.33
2022-10-30T21:07:07.511Z,6.90
2022-10-30T21:11:09.326Z,7.03
2022-10-30T21:15:11.495Z,6.78
2022-10-30T21:19:13.270Z,5.80
2022-10-30T21:23:15.230Z,6.33
2022-10-30T21:27:17.098Z,6.50
2022-10-30T21:31:18.899Z,6.47
2022-10-30T21:35:21.033Z,5.43
2022-10-30T21:39:22.793Z,6.30
2022-10-30T21:43:24.802Z,6.47
2022-10-30T21:47:26.569Z,6.95
2022-10-30T21:51:28.512Z,6.73
2022-10-30T21:55:30.318Z,6.30
2022-10-30T21:59:32.293Z,6.60
2022-10-30T22:03:34.358Z,6.30
2022-10-30T22:07:36.054Z,6.80
2022-10-30T22:11:38.231Z,6.10
2022-10-30T22:15:39.899Z,6.60
2022-10-30T22:19:42.022Z,5.70
2022-10-30T22:23:44.228Z,5.60
2022-10-30T22:27:50.812Z,5.60
2022-10-30T22:31:52.934Z,7.13
2022-10-30T22:35:54.641Z,8.43
2022-10-30T22:39:56.330Z,8.10
2022-10-30T22:43:59.232Z,8.63
2022-10-30T22:48:04.854Z,7.27
2022-10-30T22:52:06.915Z,7.87
2022-10-30T22:56:16.376Z,8.93
2022-10-30T23:00:26.773Z,6.93
2022-10-30T23:04:28.494Z,6.90
2022-10-30T23:08:33.105Z,6.67
2022-10-30T23:12:34.823Z,6.70
2022-10-30T23:16:36.665Z,7.40
2022-10-30T23:20:46.689Z,6.30
2022-10-30T23:24:51.492Z,5.45
2022-10-30T23:28:54.815Z,4.80
2022-10-30T23:32:56.680Z,4.70
2022-10-30T23:37:00.889Z,4.20
2022-10-30T23:41:03.738Z,4.70
2022-10-30T23:45:06.003Z,4.70
2022-10-30T23:49:07.972Z,4.73
2022-10-30T23:53:12.260Z,4.63
2022-10-30T23:57:18.095Z,4.30
